Misawa, Japan
Current Conditions -  °F | °C
As of 6:00 PM on Saturday 25 Oct 2014 (Local Time) from RJSA Reporting Station
Few Clouds Few Clouds  
Wind Chill: 61°   Ceiling: Unl
Heat Index: 61°   Visibility: 6mi
Dew Point: 34°   Wind: 15mph
Humidity: 36%   Direction: 200°SSW
Pressure: 30.12"   Gusts: NA
Location:  40.68°N, 141.37°E
Report Text: RJSA 250900Z 20013KT 9999 FEW040 16/01 Q1020
Loading
Personal Weather Stations






























Interactive Weather Map
Tropical Storm Tracking
New forecast layout! Learn more

10-Day Weather Forecast

Advertisements
Track Severe Weather on mobile